createdAt,value
2022-10-21T00:00:15.163Z,4.60
2022-10-21T00:02:44.380Z,4.50
2022-10-21T00:05:15.500Z,4.40
2022-10-21T00:07:44.764Z,4.30
2022-10-21T00:10:13.822Z,4.30
2022-10-21T00:12:49.676Z,4.20
2022-10-21T00:15:18.760Z,4.10
2022-10-21T00:17:47.976Z,4.00
2022-10-21T00:20:19.075Z,4.00
2022-10-21T00:22:48.222Z,3.90
2022-10-21T00:25:17.304Z,3.80
2022-10-21T00:27:46.657Z,3.80
2022-10-21T00:30:15.811Z,3.70
2022-10-21T00:32:51.621Z,3.70
2022-10-21T00:35:22.120Z,3.60
2022-10-21T00:37:51.339Z,3.60
2022-10-21T00:40:20.478Z,3.60
2022-10-21T00:42:49.633Z,3.60
2022-10-21T00:45:21.161Z,3.50
2022-10-21T00:47:54.191Z,3.50
2022-10-21T00:50:32.491Z,3.40
2022-10-21T00:53:03.028Z,3.40
2022-10-21T00:55:36.528Z,3.30
2022-10-21T00:58:06.197Z,3.30
2022-10-21T01:00:35.295Z,3.30
2022-10-21T01:03:05.375Z,3.20
2022-10-21T01:05:37.989Z,3.10
2022-10-21T01:08:07.485Z,3.10
2022-10-21T01:10:36.650Z,3.10
2022-10-21T01:13:18.325Z,3.00
2022-10-21T01:15:56.543Z,3.00
2022-10-21T01:18:32.669Z,2.90
2022-10-21T01:21:21.121Z,2.90
2022-10-21T01:24:20.921Z,2.90
2022-10-21T01:27:36.197Z,2.80
2022-10-21T01:30:28.950Z,2.80
2022-10-21T01:33:30.526Z,2.80
2022-10-21T01:36:07.373Z,2.70
2022-10-21T01:38:44.082Z,2.70
2022-10-21T01:41:20.324Z,2.70
2022-10-21T01:43:56.644Z,2.60
2022-10-21T01:46:29.542Z,2.60
2022-10-21T01:49:05.561Z,2.60
2022-10-21T01:51:36.140Z,2.50
2022-10-21T01:54:10.122Z,2.50
2022-10-21T01:56:40.862Z,2.50
2022-10-21T01:59:13.068Z,2.40
2022-10-21T02:01:43.000Z,2.40
2022-10-21T02:04:14.892Z,2.40
2022-10-21T02:06:44.080Z,2.40
2022-10-21T02:09:13.469Z,2.40
2022-10-21T02:14:32.109Z,2.30
2022-10-21T02:17:02.004Z,2.30
2022-10-21T02:19:33.454Z,2.30
2022-10-21T02:22:04.161Z,2.20
2022-10-21T02:24:40.773Z,2.20
2022-10-21T02:27:09.767Z,2.10
2022-10-21T02:29:44.170Z,2.10
2022-10-21T02:32:25.541Z,2.10
2022-10-21T02:35:10.961Z,2.10
2022-10-21T02:37:47.616Z,2.00
2022-10-21T02:40:21.795Z,2.10
2022-10-21T02:43:04.441Z,2.00
2022-10-21T02:45:35.383Z,2.00
2022-10-21T02:48:04.345Z,2.00
2022-10-21T02:50:34.843Z,2.00
2022-10-21T02:53:06.373Z,2.00
2022-10-21T02:55:37.962Z,1.90
2022-10-21T02:58:06.742Z,2.00
2022-10-21T03:00:53.937Z,1.90
2022-10-21T03:03:22.884Z,1.90
2022-10-21T03:06:02.385Z,1.90
2022-10-21T03:08:31.258Z,1.90
2022-10-21T03:11:00.116Z,1.90
2022-10-21T03:13:29.013Z,1.80
2022-10-21T03:15:57.943Z,1.90
2022-10-21T03:18:26.797Z,1.80
2022-10-21T03:20:55.741Z,1.80
2022-10-21T03:23:29.049Z,1.80
2022-10-21T03:25:57.957Z,1.80
2022-10-21T03:28:26.844Z,1.80
2022-10-21T03:31:02.023Z,1.70
2022-10-21T03:33:30.920Z,1.70
2022-10-21T03:36:06.520Z,1.70
2022-10-21T03:38:36.971Z,1.70
2022-10-21T03:41:05.971Z,1.70
2022-10-21T03:43:34.734Z,1.70
2022-10-21T03:46:06.588Z,1.60
2022-10-21T03:48:38.423Z,1.60
2022-10-21T03:51:07.513Z,1.60
2022-10-21T03:53:43.201Z,1.60
2022-10-21T03:56:12.744Z,1.60
2022-10-21T03:58:42.427Z,1.60
2022-10-21T04:01:15.964Z,1.60
2022-10-21T04:03:44.699Z,1.60
2022-10-21T04:06:16.317Z,1.60
2022-10-21T04:08:46.667Z,1.70
2022-10-21T04:11:15.740Z,1.60
2022-10-21T04:13:59.942Z,1.60
2022-10-21T04:16:31.441Z,1.60
2022-10-21T04:19:00.205Z,1.60
2022-10-21T04:21:29.050Z,1.50
2022-10-21T04:23:59.275Z,1.60
2022-10-21T04:26:28.255Z,1.50
2022-10-21T04:28:57.075Z,1.50
2022-10-21T04:31:29.839Z,1.50
2022-10-21T04:34:01.282Z,1.50
2022-10-21T04:36:30.443Z,1.40
2022-10-21T04:39:00.844Z,1.40
2022-10-21T04:41:36.244Z,1.40
2022-10-21T04:44:06.655Z,1.30
2022-10-21T04:46:38.495Z,1.30
2022-10-21T04:49:07.376Z,1.30
2022-10-21T04:51:36.419Z,1.20
2022-10-21T04:54:06.696Z,1.20
2022-10-21T04:56:35.569Z,1.30
2022-10-21T04:59:04.390Z,1.30
2022-10-21T05:01:39.130Z,1.30
2022-10-21T05:04:08.982Z,1.20
2022-10-21T05:06:38.026Z,1.30
2022-10-21T05:09:08.426Z,1.30
2022-10-21T05:11:37.401Z,1.30
2022-10-21T05:14:06.343Z,1.30
2022-10-21T05:16:38.064Z,1.30
2022-10-21T05:19:06.872Z,1.30
2022-10-21T05:24:07.945Z,1.40
2022-10-21T05:26:42.930Z,1.40
2022-10-21T05:29:17.800Z,1.40
2022-10-21T05:32:01.767Z,1.50
2022-10-21T05:34:36.208Z,1.50
2022-10-21T05:37:17.006Z,1.50
2022-10-21T05:39:47.298Z,1.50
2022-10-21T05:42:16.317Z,1.60
2022-10-21T05:44:45.074Z,1.60
2022-10-21T05:47:13.980Z,1.60
2022-10-21T05:49:42.735Z,1.60
2022-10-21T05:52:11.777Z,1.60
2022-10-21T05:54:48.185Z,1.70
2022-10-21T05:57:17.037Z,1.70
2022-10-21T05:59:46.001Z,1.80
2022-10-21T06:02:14.913Z,1.80
2022-10-21T06:04:46.387Z,1.90
2022-10-21T06:07:15.233Z,2.00
2022-10-21T06:09:44.126Z,2.10
2022-10-21T06:12:14.465Z,2.20
2022-10-21T06:14:43.494Z,2.30
2022-10-21T06:17:12.414Z,2.30
2022-10-21T06:19:41.176Z,2.40
2022-10-21T06:22:10.094Z,2.50
2022-10-21T06:24:38.869Z,2.60
2022-10-21T06:27:10.375Z,2.70
2022-10-21T06:29:40.665Z,2.80
2022-10-21T06:32:09.622Z,2.90
2022-10-21T06:34:38.442Z,3.10
2022-10-21T06:37:07.363Z,3.30
2022-10-21T06:39:36.183Z,3.40
2022-10-21T06:42:05.739Z,3.50
2022-10-21T06:44:37.447Z,3.60
2022-10-21T06:47:07.873Z,3.80
2022-10-21T06:49:39.648Z,3.90
2022-10-21T06:52:11.395Z,3.90
2022-10-21T06:54:40.371Z,4.00
2022-10-21T06:57:09.166Z,4.00
2022-10-21T06:59:38.005Z,4.10
2022-10-21T07:02:08.373Z,4.20
2022-10-21T07:04:37.304Z,4.30
2022-10-21T07:07:06.245Z,4.50
2022-10-21T07:09:35.382Z,4.70
2022-10-21T07:12:04.902Z,5.00
2022-10-21T07:14:34.005Z,5.20
2022-10-21T07:17:10.163Z,5.30
2022-10-21T07:19:41.125Z,5.30
2022-10-21T07:22:10.068Z,5.40
2022-10-21T07:24:39.043Z,5.60
2022-10-21T07:27:07.931Z,5.50
2022-10-21T07:29:52.011Z,5.60
2022-10-21T07:32:22.241Z,5.60
2022-10-21T07:34:51.044Z,5.60
2022-10-21T07:37:19.893Z,5.70
2022-10-21T07:39:51.620Z,5.70
2022-10-21T07:42:20.489Z,5.80
2022-10-21T07:44:53.508Z,6.00
2022-10-21T07:47:24.191Z,6.20
2022-10-21T07:49:53.192Z,6.40
2022-10-21T07:52:21.926Z,6.60
2022-10-21T07:54:53.641Z,6.80
2022-10-21T07:57:25.150Z,6.90
2022-10-21T07:59:54.091Z,7.20
2022-10-21T08:02:25.501Z,7.40
2022-10-21T08:04:56.656Z,7.50
2022-10-21T08:07:25.479Z,7.80
2022-10-21T08:09:54.338Z,7.80
2022-10-21T08:12:23.264Z,8.00
2022-10-21T08:14:55.089Z,8.10
2022-10-21T08:17:25.396Z,8.10
2022-10-21T08:22:29.017Z,8.10
2022-10-21T08:25:00.958Z,8.10
2022-10-21T08:27:38.599Z,8.00
2022-10-21T08:30:08.440Z,8.00
2022-10-21T08:32:44.556Z,8.00
2022-10-21T08:35:13.455Z,7.80
2022-10-21T08:37:42.308Z,7.80
2022-10-21T08:40:13.692Z,7.80
2022-10-21T08:42:46.274Z,7.80
2022-10-21T08:45:25.122Z,7.80
2022-10-21T08:47:57.629Z,7.90
2022-10-21T08:50:31.056Z,8.00
2022-10-21T08:53:05.966Z,8.10
2022-10-21T08:55:40.498Z,8.20
2022-10-21T08:58:16.388Z,8.20
2022-10-21T09:00:50.246Z,8.30
2022-10-21T09:03:28.672Z,8.30
2022-10-21T09:06:17.777Z,8.40
2022-10-21T09:09:08.540Z,8.50
2022-10-21T09:11:47.104Z,8.70
2022-10-21T09:14:47.819Z,8.80
2022-10-21T09:17:24.291Z,9.10
2022-10-21T09:20:04.205Z,9.20
2022-10-21T09:22:46.394Z,9.50
2022-10-21T09:25:27.627Z,9.30
2022-10-21T09:27:57.430Z,9.50
2022-10-21T09:30:27.604Z,9.40
2022-10-21T09:32:59.629Z,9.50
2022-10-21T09:35:35.533Z,9.60
2022-10-21T09:38:13.356Z,9.80
2022-10-21T09:40:42.169Z,10.00
2022-10-21T09:43:18.934Z,10.10
2022-10-21T09:46:06.339Z,9.90
2022-10-21T09:49:08.237Z,10.10
2022-10-21T09:51:40.569Z,10.10
2022-10-21T09:54:16.500Z,10.30
2022-10-21T09:56:52.094Z,10.40
2022-10-21T09:59:23.704Z,10.40
2022-10-21T10:01:53.241Z,10.70
2022-10-21T10:04:25.604Z,10.80
2022-10-21T10:06:55.822Z,10.70
2022-10-21T10:09:29.497Z,10.90
2022-10-21T10:12:02.065Z,10.80
2022-10-21T10:14:36.432Z,10.80
2022-10-21T10:17:30.314Z,10.90
2022-10-21T10:20:19.414Z,11.20
2022-10-21T10:23:10.049Z,11.40
2022-10-21T10:25:52.504Z,11.10
2022-10-21T10:28:27.154Z,11.00
2022-10-21T10:30:57.818Z,11.20
2022-10-21T10:33:32.091Z,11.30
2022-10-21T10:36:05.527Z,11.30
2022-10-21T10:38:39.964Z,11.40
2022-10-21T10:41:19.425Z,11.50
2022-10-21T10:43:50.774Z,11.10
2022-10-21T10:46:39.522Z,11.10
2022-10-21T10:49:22.795Z,11.10
2022-10-21T10:52:06.925Z,11.50
2022-10-21T10:54:46.495Z,11.60
2022-10-21T10:57:18.144Z,11.60
2022-10-21T10:59:50.135Z,11.70
2022-10-21T11:02:32.064Z,11.50
2022-10-21T11:05:15.146Z,11.60
2022-10-21T11:07:47.850Z,11.30
2022-10-21T11:10:36.793Z,11.50
2022-10-21T11:13:13.904Z,11.40
2022-10-21T11:16:02.759Z,11.70
2022-10-21T11:18:39.839Z,11.80
2022-10-21T11:21:25.187Z,11.80
2022-10-21T11:24:16.801Z,11.90
2022-10-21T11:26:55.781Z,11.80
2022-10-21T11:29:40.860Z,11.80
2022-10-21T11:32:22.642Z,12.00
2022-10-21T11:35:01.442Z,11.80
2022-10-21T11:37:46.760Z,11.60
2022-10-21T11:40:26.859Z,11.70
2022-10-21T11:43:30.303Z,11.70
2022-10-21T11:46:04.500Z,11.50
2022-10-21T11:48:47.529Z,11.30
2022-10-21T11:51:30.342Z,11.20
2022-10-21T11:54:27.674Z,11.40
2022-10-21T11:57:05.554Z,11.40
2022-10-21T11:59:54.196Z,11.50
2022-10-21T12:02:34.197Z,11.60
2022-10-21T12:05:09.687Z,11.70
2022-10-21T12:07:52.176Z,11.70
2022-10-21T12:10:30.851Z,11.90
2022-10-21T12:13:03.971Z,11.50
2022-10-21T12:15:43.599Z,11.30
2022-10-21T12:18:18.911Z,11.40
2022-10-21T12:20:50.377Z,11.50
2022-10-21T12:23:22.350Z,11.70
2022-10-21T12:26:03.401Z,11.90
2022-10-21T12:28:38.014Z,11.90
2022-10-21T12:31:29.658Z,11.90
2022-10-21T12:33:59.338Z,12.00
2022-10-21T12:36:43.790Z,11.90
2022-10-21T12:39:34.829Z,11.60
2022-10-21T12:42:17.739Z,11.50
2022-10-21T12:44:51.453Z,11.50
2022-10-21T12:47:30.129Z,11.50
2022-10-21T12:50:08.808Z,11.30
2022-10-21T12:52:39.379Z,11.10
2022-10-21T12:55:19.809Z,11.10
2022-10-21T12:58:00.742Z,11.10
2022-10-21T13:00:56.746Z,10.90
2022-10-21T13:03:52.722Z,11.00
2022-10-21T13:06:55.030Z,11.30
2022-10-21T13:09:42.174Z,11.40
2022-10-21T13:12:30.310Z,11.60
2022-10-21T13:15:01.352Z,11.60
2022-10-21T13:17:52.485Z,11.50
2022-10-21T13:20:48.542Z,11.40
2022-10-21T13:23:53.832Z,11.30
2022-10-21T13:26:25.859Z,11.20
2022-10-21T13:29:16.959Z,11.20
2022-10-21T13:32:23.227Z,11.10
2022-10-21T13:35:14.597Z,11.10
2022-10-21T13:37:54.856Z,11.00
2022-10-21T13:40:27.932Z,10.90
2022-10-21T13:43:01.510Z,11.00
2022-10-21T13:45:33.071Z,11.00
2022-10-21T13:48:16.219Z,10.90
2022-10-21T13:50:46.635Z,10.90
2022-10-21T13:53:26.857Z,10.90
2022-10-21T13:56:01.929Z,10.80
2022-10-21T13:58:36.478Z,10.80
2022-10-21T14:01:13.894Z,10.90
2022-10-21T14:03:44.285Z,10.80
2022-10-21T14:06:18.595Z,10.80
2022-10-21T14:08:49.918Z,10.70
2022-10-21T14:11:22.364Z,10.70
2022-10-21T14:13:52.805Z,10.60
2022-10-21T14:16:23.916Z,10.50
2022-10-21T14:18:55.096Z,10.60
2022-10-21T14:21:26.831Z,10.60
2022-10-21T14:23:57.892Z,10.60
2022-10-21T14:26:31.189Z,10.60
2022-10-21T14:29:06.051Z,10.60
2022-10-21T14:31:35.101Z,10.60
2022-10-21T14:34:07.564Z,10.40
2022-10-21T14:36:36.417Z,10.20
2022-10-21T14:39:20.254Z,10.10
2022-10-21T14:41:50.078Z,10.00
2022-10-21T14:44:23.219Z,9.70
2022-10-21T14:46:54.508Z,9.60
2022-10-21T14:49:25.801Z,9.40
2022-10-21T14:52:00.567Z,9.30
2022-10-21T14:54:38.891Z,9.10
2022-10-21T14:57:07.785Z,9.00
2022-10-21T14:59:41.121Z,8.80
2022-10-21T15:02:20.162Z,8.70
2022-10-21T15:04:54.093Z,8.70
2022-10-21T15:07:30.291Z,8.70
2022-10-21T15:10:19.983Z,8.70
2022-10-21T15:12:51.681Z,8.70
2022-10-21T15:15:52.460Z,8.70
2022-10-21T15:18:24.906Z,8.60
2022-10-21T15:21:00.315Z,8.50
2022-10-21T15:23:32.513Z,8.40
2022-10-21T15:26:06.201Z,8.40
2022-10-21T15:28:36.785Z,8.50
2022-10-21T15:31:10.174Z,8.40
2022-10-21T15:33:38.996Z,8.40
2022-10-21T15:36:10.205Z,8.40
2022-10-21T15:38:44.781Z,8.40
2022-10-21T15:41:17.411Z,8.40
2022-10-21T15:43:52.255Z,8.40
2022-10-21T15:46:21.369Z,8.40
2022-10-21T15:48:50.130Z,8.30
2022-10-21T15:51:19.000Z,8.20
2022-10-21T15:53:47.896Z,8.10
2022-10-21T15:56:19.643Z,8.00
2022-10-21T15:58:48.723Z,8.00
2022-10-21T16:01:19.078Z,8.00
2022-10-21T16:03:51.206Z,7.90
2022-10-21T16:06:22.176Z,7.80
2022-10-21T16:08:55.363Z,7.90
2022-10-21T16:11:35.053Z,7.90
2022-10-21T16:14:14.715Z,8.00
2022-10-21T16:16:49.265Z,8.20
2022-10-21T16:19:18.721Z,8.20
2022-10-21T16:21:48.064Z,8.20
2022-10-21T16:24:17.461Z,8.30
2022-10-21T16:26:49.782Z,8.40
2022-10-21T16:29:22.026Z,8.40
2022-10-21T16:31:53.747Z,8.50
2022-10-21T16:34:22.899Z,8.50
2022-10-21T16:36:51.688Z,8.50
2022-10-21T16:39:22.413Z,8.50
2022-10-21T16:41:53.292Z,8.60
2022-10-21T16:44:22.516Z,8.70
2022-10-21T16:46:52.999Z,8.70
2022-10-21T16:49:23.998Z,8.70
2022-10-21T16:51:54.417Z,8.70
2022-10-21T16:54:24.809Z,8.70
2022-10-21T16:56:56.314Z,8.70
2022-10-21T16:59:25.332Z,8.80
2022-10-21T17:01:54.201Z,8.80
2022-10-21T17:04:23.058Z,8.80
2022-10-21T17:06:52.289Z,8.80
2022-10-21T17:09:34.546Z,8.80
2022-10-21T17:12:06.401Z,8.80
2022-10-21T17:17:09.152Z,8.80
2022-10-21T17:19:38.215Z,8.80
2022-10-21T17:22:08.781Z,8.80
2022-10-21T17:24:37.782Z,8.80
2022-10-21T17:27:08.101Z,8.80
2022-10-21T17:29:37.008Z,8.80
2022-10-21T17:32:07.132Z,8.80
2022-10-21T17:34:39.681Z,8.80
2022-10-21T17:37:09.149Z,8.80
2022-10-21T17:39:38.971Z,8.70
2022-10-21T17:42:11.380Z,8.80
2022-10-21T17:44:40.335Z,8.70
2022-10-21T17:47:09.354Z,8.70
2022-10-21T17:49:38.819Z,8.60
2022-10-21T17:52:08.077Z,8.60
2022-10-21T17:54:37.540Z,8.60
2022-10-21T17:57:06.761Z,8.60
2022-10-21T17:59:37.464Z,8.60
2022-10-21T18:02:06.656Z,8.60
2022-10-21T18:04:36.046Z,8.60
2022-10-21T18:07:09.313Z,8.60
2022-10-21T18:09:40.096Z,8.50
2022-10-21T18:12:12.643Z,8.50
2022-10-21T18:14:46.120Z,8.50
2022-10-21T18:17:16.620Z,8.50
2022-10-21T18:19:45.986Z,8.40
2022-10-21T18:22:16.746Z,8.30
2022-10-21T18:24:48.728Z,8.30
2022-10-21T18:27:19.203Z,8.20
2022-10-21T18:29:51.576Z,8.20
2022-10-21T18:32:20.852Z,8.10
2022-10-21T18:34:51.826Z,8.10
2022-10-21T18:37:24.139Z,8.40
2022-10-21T18:39:56.684Z,8.10
2022-10-21T18:42:29.726Z,8.20
2022-10-21T18:45:00.498Z,8.20
2022-10-21T18:47:29.974Z,8.20
2022-10-21T18:50:06.545Z,8.30
2022-10-21T18:52:35.894Z,8.30
2022-10-21T18:57:36.109Z,8.30
2022-10-21T19:00:08.283Z,8.30
2022-10-21T19:02:37.665Z,8.30
2022-10-21T19:05:08.487Z,8.40
2022-10-21T19:07:38.130Z,8.40
2022-10-21T19:10:08.869Z,8.40
2022-10-21T19:12:38.318Z,8.40
2022-10-21T19:15:10.798Z,8.40
2022-10-21T19:17:42.779Z,8.40
2022-10-21T19:20:12.925Z,8.40
2022-10-21T19:22:42.135Z,8.40
2022-10-21T19:25:11.825Z,8.30
2022-10-21T19:27:42.668Z,8.30
2022-10-21T19:30:14.377Z,8.30
2022-10-21T19:32:44.385Z,8.30
2022-10-21T19:35:14.251Z,8.40
2022-10-21T19:37:43.591Z,8.40
2022-10-21T19:40:13.750Z,8.40
2022-10-21T19:42:43.144Z,8.40
2022-10-21T19:45:17.256Z,8.40
2022-10-21T19:47:46.715Z,8.40
2022-10-21T19:50:16.028Z,8.40
2022-10-21T19:52:45.469Z,8.40
2022-10-21T19:55:14.667Z,8.30
2022-10-21T19:57:43.776Z,8.30
2022-10-21T20:00:15.410Z,8.30
2022-10-21T20:02:44.575Z,8.20
2022-10-21T20:05:13.884Z,8.20
2022-10-21T20:07:49.439Z,8.10
2022-10-21T20:10:20.557Z,8.20
2022-10-21T20:12:49.792Z,8.00
2022-10-21T20:15:23.158Z,8.00
2022-10-21T20:17:52.275Z,7.90
2022-10-21T20:20:21.166Z,7.80
2022-10-21T20:22:50.145Z,7.70
2022-10-21T20:25:19.137Z,7.70
2022-10-21T20:27:50.668Z,7.60
2022-10-21T20:30:20.016Z,7.60
2022-10-21T20:32:53.267Z,7.60
2022-10-21T20:35:22.319Z,7.50
2022-10-21T20:37:51.176Z,7.40
2022-10-21T20:40:22.256Z,7.40
2022-10-21T20:42:51.117Z,7.30
2022-10-21T20:45:20.261Z,7.30
2022-10-21T20:47:50.928Z,7.30
2022-10-21T20:50:20.414Z,7.20
2022-10-21T20:52:49.453Z,7.20
2022-10-21T20:55:18.473Z,7.20
2022-10-21T20:57:47.480Z,7.10
2022-10-21T21:00:16.536Z,7.10
2022-10-21T21:02:45.623Z,7.10
2022-10-21T21:05:17.072Z,7.10
2022-10-21T21:07:46.038Z,7.10
2022-10-21T21:10:15.175Z,7.10
2022-10-21T21:12:44.196Z,7.00
2022-10-21T21:15:16.099Z,7.10
2022-10-21T21:17:44.980Z,7.10
2022-10-21T21:20:15.374Z,7.10
2022-10-21T21:22:44.442Z,7.10
2022-10-21T21:25:13.515Z,7.10
2022-10-21T21:27:44.067Z,7.10
2022-10-21T21:30:15.514Z,7.20
2022-10-21T21:32:44.764Z,7.30
2022-10-21T21:35:15.160Z,7.40
2022-10-21T21:37:46.665Z,7.50
2022-10-21T21:40:15.685Z,7.60
2022-10-21T21:42:44.536Z,7.60
2022-10-21T21:45:13.327Z,7.60
2022-10-21T21:47:45.369Z,7.70
2022-10-21T21:50:15.584Z,7.70
2022-10-21T21:52:44.892Z,7.80
2022-10-21T21:55:13.860Z,7.80
2022-10-21T21:57:45.745Z,7.80
2022-10-21T22:00:15.363Z,7.80
2022-10-21T22:02:44.337Z,7.80
2022-10-21T22:05:15.191Z,7.90
2022-10-21T22:07:44.026Z,7.90
2022-10-21T22:10:14.980Z,7.90
2022-10-21T22:12:44.190Z,8.00
2022-10-21T22:15:29.719Z,8.00
2022-10-21T22:18:03.481Z,8.00
2022-10-21T22:20:33.814Z,8.10
2022-10-21T22:23:02.662Z,8.00
2022-10-21T22:25:31.522Z,8.00
2022-10-21T22:28:00.320Z,8.00
2022-10-21T22:30:29.209Z,8.10
2022-10-21T22:33:06.899Z,8.00
2022-10-21T22:35:41.060Z,8.00
2022-10-21T22:38:10.075Z,8.00
2022-10-21T22:40:55.157Z,8.00
2022-10-21T22:43:27.699Z,8.10
2022-10-21T22:46:09.589Z,8.10
2022-10-21T22:48:44.224Z,8.10
2022-10-21T22:51:17.346Z,8.20
2022-10-21T22:53:46.828Z,8.20
2022-10-21T22:56:18.285Z,8.20
2022-10-21T22:58:53.569Z,8.20
2022-10-21T23:01:24.314Z,8.10
2022-10-21T23:03:53.731Z,8.20
2022-10-21T23:06:23.962Z,8.00
2022-10-21T23:09:02.303Z,8.20
2022-10-21T23:11:31.463Z,8.10
2022-10-21T23:14:03.044Z,8.20
2022-10-21T23:16:37.246Z,8.30
2022-10-21T23:19:06.580Z,8.30
2022-10-21T23:21:37.075Z,8.30
2022-10-21T23:24:09.492Z,8.30
2022-10-21T23:26:38.337Z,8.30
2022-10-21T23:29:07.243Z,8.30
2022-10-21T23:31:38.821Z,8.30
2022-10-21T23:34:07.620Z,8.40
2022-10-21T23:36:38.297Z,8.40
2022-10-21T23:39:13.388Z,8.40
2022-10-21T23:41:42.350Z,8.40
2022-10-21T23:44:11.220Z,8.40
2022-10-21T23:46:52.307Z,8.40
2022-10-21T23:49:27.224Z,8.30
2022-10-21T23:51:58.544Z,8.30
2022-10-21T23:54:27.436Z,8.40
2022-10-21T23:56:56.322Z,8.30
2022-10-21T23:59:27.870Z,8.30
